Terminal Aerodrome Forecast
Issued by NWS Melbourne, FL

Home | Current Version | Previous Version | Text Only | Print | Product List | Glossary On
Versions: 1 2 3 4 5 6 7 8 9 10 11 12 13 14 15 16 17
481
FTUS42 KMLB 230541
TAFDAB
TAF
KDAB 230541Z 2306/2406 04005KT P6SM VCSH SCT030 BKN100
     FM231400 12009KT P6SM VCSH BKN025 OVC040
     FM231800 17009KT 5SM SHRA SCT015 BKN025
      TEMPO 2318/2322 2SM +SHRA SCT008 BKN012
     FM240000 01012KT P6SM VCSH BKN008 OVC010=

USA.gov is the U.S. government's official web portal to all federal, state and local government web resources and services.